NEODyS-2

Near Earth Objects - Dynamic Site
NEODyS ∴ Observatories ∴ Site 691 ∴ Obs & residuals
Contact »
691  ▹ 
OBSERVATIONS AND RESIDUALS

691-Steward Observatory, Kitt Peak-Spacewatch

Detections | Residuals | Detections & Residuals

[1-200] [201-400] [401-600] [601-800] [801-1000] [1001-1200] [1201-1400] [1401-1600] [1601-1800] [1801-2000] [2001-2200] [2201-2400] [2401-2600] [2601-2800] [2801-3000] [3001-3200] [3201-3400] [3401-3600] [3601-3800] [3801-4000] [4001-4200] [4201-4400] [4401-4600] [4601-4800] [4801-5000] [5001-5200] [5201-5400] [5401-5600] [5601-5800] [5801-6000] [6001-6200] [6201-6400] [6401-6600] [6601-6800] [6801-7000] [7001-7200] [7201-7400] [7401-7600] [7601-7800] [7801-8000] [8001-8200] [8201-8400] [8401-8600] [8601-8800] [8801-9000] [9001-9200] [9201-9400] [9401-9600] [9601-9800] [9801-10000] [10001-10200] [10201-10400] [10401-10600] [10601-10800] [10801-11000] [11001-11200] [11201-11400] [11401-11600] [11601-11800] [11801-12000] [12001-12200] [12201-12400] [12401-12600] [12601-12800] [12801-13000] [13001-13200] [13201-13400] [13401-13600] [13601-13800] [13801-14000] [14001-14200] [14201-14400] [14401-14600] [14601-14800] [14801-15000] [15001-15200] [15201-15400] [15401-15600] [15601-15800] [15801-16000] [16001-16200] [16201-16400] [16401-16600] [16601-16800] [16801-17000] [17001-17200] [17201-17400] [17401-17600] [17601-17800] [17801-18000] [18001-18200] [18201-18400] [18401-18600] [18601-18800] [18801-19000] [19001-19200] [19201-19400] [19401-19600] [19601-19800] [19801-20000] [20001-20200] [20201-20400] [20401-20600] [20601-20800] [20801-21000] [21001-21200] [21201-21400] [21401-21600] [21601-21800] [21801-22000] [22001-22200] [22201-22400] [22401-22600] [22601-22800] [22801-23000] [23001-23200] [23201-23400] [23401-23600] [23601-23800] [23801-24000] [24001-24200] [24201-24400] [24401-24600] [24601-24800] [24801-25000] [25001-25200] [25201-25400] [25401-25600] [25601-25800] [25801-26000] [26001-26200] [26201-26400] [26401-26600] [26601-26800] [26801-27000] [27001-27200] [27201-27400] [27401-27600] [27601-27800] [27801-28000] [28001-28200] [28201-28400] [28401-28600] [28601-28800] [28801-29000] [29001-29200] [29201-29400] [29401-29600] [29601-29800] [29801-30000] [30001-30200] [30201-30400] [30401-30600] [30601-30800] [30801-31000] [31001-31200] [31201-31400] [31401-31600] [31601-31800] [31801-32000] [32001-32200] [32201-32400] [32401-32600] [32601-32800] [32801-33000] [33001-33200] [33201-33400] [33401-33600] [33601-33800] [33801-34000] [34001-34200] [34201-34400] [34401-34600] [34601-34800] [34801-35000] [35001-35200] [35201-35400] [35401-35600] [35601-35800] [35801-36000] [36001-36200] [36201-36400] [36401-36600] [36601-36800] [36801-37000] [37001-37200] [37201-37400] [37401-37600] [37601-37800] [37801-38000] [38001-38200] [38201-38400] [38401-38600] [38601-38800] [38801-39000] [39001-39200] [39201-39400] [39401-39600] [39601-39800] [39801-40000] [40001-40200] [40201-40400] [40401-40600] [40601-40800] [40801-41000] [41001-41200] [41201-41400] [41401-41600] [41601-41800] [41801-42000] [42001-42200] [42201-42400] [42401-42600] [42601-42800] [42801-43000] [43001-43200] [43201-43400] [43401-43600] [43601-43800] [43801-44000] [44001-44200] [44201-44400] [44401-44600] [44601-44800] [44801-45000] [45001-45200] [45201-45400] [45401-45600] [45601-45800] [45801-46000] [46001-46200] [46201-46400] [46401-46600] [46601-46800] [46801-47000] [47001-47200] [47201-47400] [47401-47600] [47601-47800] [47801-48000] [48001-48200] [48201-48400] [48401-48600] [48601-48800] [48801-49000] [49001-49200] [49201-49400] [49401-49600] [49601-49800] [49801-50000] [50001-50200] [50201-50388]

Designation T Tech N Date Right Ascension Declination Apparent Magnitude Star Catalog Site code χ Used A Used M
yr-mo-day precision hr:min:sec precision rms F bias residual deg min sec precision rms F bias residual mag/col rms residual
2008VQ4 O C 2016-02-09.11893 1.000E-05 03:42:06.200 1.500E-01 0.500 F -0.302 0.748 +05° 23' 04.70" 1.000E-01 0.500 F 0.270 0.160 20.6 V 0.70 0.00 o 691 1.55 Yes Yes
2001BB16 O C H 2016-02-09.15195 1.000E-05 03:24:05.490 1.500E-01 0.500 F -0.268 -0.387 +22° 13' 18.80" 1.000E-01 0.500 F 0.354 -0.919 o 691 2.01 Yes No
2001BB16 O C H 2016-02-09.15467 1.000E-05 03:24:05.990 1.500E-01 0.500 F -0.268 -0.084 +22° 13' 23.20" 1.000E-01 0.500 F 0.354 -0.469 o 691 0.96 Yes No
2001BB16 O C H 2016-02-09.15740 1.000E-05 03:24:06.460 1.500E-01 0.500 F -0.268 -0.233 +22° 13' 27.90" 1.000E-01 0.500 F 0.354 0.273 o 691 0.72 Yes No
2016BC15 O C H 2016-02-09.20894 1.000E-05 08:22:42.880 1.500E-01 0.500 F -0.031 0.028 -05° 47' 34.40" 1.000E-01 0.500 F 0.019 -0.866 o 691 1.89 Yes No
2016CW193 O C 2016-02-09.20894 1.000E-05 08:20:50.770 1.500E-01 0.500 F 0.012 -0.081 -06° 09' 30.60" 1.000E-01 0.500 F 0.029 0.004 19.9 V 0.70 -0.16 o 691 0.16 Yes Yes
2016BC15 O C H 2016-02-09.21073 1.000E-05 08:22:42.920 1.500E-01 0.500 F -0.031 0.129 -05° 47' 57.40" 1.000E-01 0.500 F 0.019 -0.370 o 691 0.85 Yes No
2016CW193 O C 2016-02-09.21073 1.000E-05 08:20:50.930 1.500E-01 0.500 F 0.012 -0.342 -06° 09' 24.20" 1.000E-01 0.500 F 0.029 -0.213 19.9 V 0.70 -0.16 o 691 0.81 Yes Yes
2016BC15 O C H 2016-02-09.21252 1.000E-05 08:22:42.950 1.500E-01 0.500 F -0.031 0.085 -05° 48' 20.00" 1.000E-01 0.500 F 0.019 0.524 o 691 1.16 Yes No
2016CW193 O C 2016-02-09.21252 1.000E-05 08:20:51.090 1.500E-01 0.500 F 0.012 -0.602 -06° 09' 17.30" 1.000E-01 0.500 F 0.029 0.071 19.8 V 0.70 -0.26 o 691 1.22 Yes Yes
2016CJ30 O C H 2016-02-09.21623 1.000E-05 07:31:20.800 1.500E-01 0.500 F 0.021 -0.259 +19° 06' 49.90" 1.000E-01 0.500 F 0.194 -0.362 o 691 0.90 Yes No
2016CJ30 O C H 2016-02-09.21872 1.000E-05 07:31:21.440 1.500E-01 0.500 F 0.021 0.323 +19° 06' 48.10" 1.000E-01 0.500 F 0.194 -0.745 o 691 1.64 Yes No
2016CJ30 O C H 2016-02-09.22120 1.000E-05 07:31:22.060 1.500E-01 0.500 F 0.021 0.657 +19° 06' 46.40" 1.000E-01 0.500 F 0.194 -1.027 o 691 2.46 Yes No
2016AF65 O C H 2016-02-09.22669 1.000E-05 08:56:51.860 1.500E-01 0.500 F 0.009 -0.334 -01° 43' 49.60" 1.000E-01 0.500 F 0.033 -0.011 20.8 V 0.70 -0.04 o 691 0.67 Yes Yes
2016AF65 O C H 2016-02-09.23057 1.000E-05 08:56:51.560 1.500E-01 0.500 F 0.009 -0.015 -01° 43' 52.10" 1.000E-01 0.500 F 0.033 -0.032 21.0 V 0.70 0.16 o 691 0.07 Yes Yes
2016AF65 O C H 2016-02-09.23444 1.000E-05 08:56:51.240 1.500E-01 0.500 F 0.009 -0.002 -01° 43' 54.70" 1.000E-01 0.500 F 0.033 -0.161 20.8 V 0.70 -0.04 o 691 0.32 Yes Yes
2016AL66 O C H 2016-02-09.23850 1.000E-05 09:31:12.080 1.500E-01 0.500 F 0.098 0.240 -04° 48' 32.80" 1.000E-01 0.500 F -0.036 0.121 o 691 0.56 Yes No
2016AL66 O C H 2016-02-09.24029 1.000E-05 09:31:13.200 1.500E-01 0.500 F 0.098 0.647 -04° 48' 29.60" 1.000E-01 0.500 F -0.036 0.026 o 691 1.35 Yes No
2016AL66 O C H 2016-02-09.24208 1.000E-05 09:31:14.160 1.500E-01 0.500 F 0.098 -1.330 -04° 48' 27.00" 1.000E-01 0.500 F -0.036 -0.669 o 691 3.11 Yes No
2011DU O C H 2016-02-09.24790 1.000E-05 09:09:03.430 1.500E-01 0.612 F 0.062 0.222 +10° 46' 46.70" 1.000E-01 0.612 F 0.158 -0.904 o 691 1.52 Yes No
2011DU O C H 2016-02-09.25039 1.000E-05 09:09:03.040 1.500E-01 0.612 F 0.062 0.049 +10° 46' 48.80" 1.000E-01 0.612 F 0.158 -0.872 o 691 1.43 Yes No
2011DU O C H 2016-02-09.25288 1.000E-05 09:09:02.710 1.500E-01 0.612 F 0.062 0.762 +10° 46' 51.20" 1.000E-01 0.612 F 0.158 -0.540 o 691 1.53 Yes No
2016CF31 O C 2016-02-09.25763 1.000E-05 09:40:05.050 1.500E-01 0.612 F 0.221 -1.097 +08° 00' 52.10" 1.000E-01 0.612 F 0.189 1.250 20.5 V 0.70 -0.17 o 691 2.75 Yes Yes
2016CF31 O C 2016-02-09.26105 1.000E-05 09:40:04.430 1.500E-01 0.612 F 0.221 -0.244 +08° 01' 00.60" 1.000E-01 0.612 F 0.189 -0.291 20.1 V 0.70 -0.57 o 691 0.63 Yes Yes
2016CF31 O C 2016-02-09.26446 1.000E-05 09:40:03.770 1.500E-01 0.612 F 0.221 -0.011 +08° 01' 10.90" 1.000E-01 0.612 F 0.189 -0.001 20.4 V 0.70 -0.27 o 691 0.02 Yes Yes
1997XR2 O C H 2016-02-09.27111 1.000E-05 11:05:54.040 1.500E-01 0.500 F 0.124 0.142 -20° 54' 51.70" 1.000E-01 0.500 F -0.240 -1.855 o 691 3.71 No No
1997XR2 O C H 2016-02-09.27429 1.000E-05 11:05:53.580 1.500E-01 0.500 F 0.124 -1.367 -20° 54' 51.90" 1.000E-01 0.500 F -0.240 -0.291 o 691 2.80 Yes No
1997XR2 O C H 2016-02-09.27747 1.000E-05 11:05:53.240 1.500E-01 0.500 F 0.124 -1.188 -20° 54' 53.80" 1.000E-01 0.500 F -0.240 -0.429 o 691 2.53 Yes No
2016CF31 O C 2016-02-09.32344 1.000E-05 09:39:52.050 1.500E-01 0.612 F 0.221 -0.185 +08° 04' 03.70" 1.000E-01 0.612 F 0.189 -0.025 20.7 V 0.70 0.03 o 691 0.31 Yes Yes
1997TD O C 2016-02-09.32344 1.000E-05 09:44:09.640 1.500E-01 0.500 F 0.214 -0.159 +08° 23' 41.20" 1.000E-01 0.500 F 0.168 -0.018 20.2 V 0.70 -0.24 o 691 0.32 Yes Yes
2016CF31 O C 2016-02-09.34214 1.000E-05 09:39:48.300 1.500E-01 0.612 F 0.221 -0.720 +08° 04' 58.50" 1.000E-01 0.612 F 0.189 0.103 20.4 V 0.70 -0.27 o 691 1.20 Yes Yes
1997TD O C 2016-02-09.34214 1.000E-05 09:44:08.550 1.500E-01 0.500 F 0.214 0.010 +08° 23' 49.10" 1.000E-01 0.500 F 0.168 -0.142 20.2 V 0.70 -0.24 o 691 0.28 Yes Yes
2016CF31 O C 2016-02-09.36085 1.000E-05 09:39:44.590 1.500E-01 0.612 F 0.221 -0.674 +08° 05' 53.40" 1.000E-01 0.612 F 0.189 0.362 20.7 V 0.70 0.03 o 691 1.26 Yes Yes
1997TD O C 2016-02-09.36085 1.000E-05 09:44:07.430 1.500E-01 0.500 F 0.214 -0.259 +08° 23' 57.20" 1.000E-01 0.500 F 0.168 -0.064 20.1 V 0.70 -0.34 o 691 0.54 Yes Yes
2013BE18 O C 2016-02-09.37750 1.000E-05 09:21:46.680 1.500E-01 0.500 F 0.054 0.918 +12° 58' 43.20" 1.000E-01 0.500 F 0.229 -1.374 21.4 V 0.70 0.77 o 691 3.29 No Yes
2011BX18 O C 2016-02-09.38451 1.000E-05 09:13:22.150 1.500E-01 0.500 F 0.101 -0.018 +12° 04' 56.70" 1.000E-01 0.500 F 0.239 0.016 19.6 V 0.70 -0.39 o 691 0.05 Yes Yes
2011DU O C 2016-02-09.38451 1.000E-05 09:08:42.600 1.500E-01 0.612 F 0.062 -0.432 +10° 48' 39.70" 1.000E-01 0.612 F 0.158 -0.473 20.4 V 0.70 -0.50 o 691 1.05 Yes Yes
2013BE18 O C 2016-02-09.39621 1.000E-05 09:21:45.210 1.500E-01 0.500 F 0.054 -0.390 +12° 58' 44.90" 1.000E-01 0.500 F 0.229 0.351 20.8 V 0.70 0.17 o 691 1.05 Yes Yes
2011DU O C 2016-02-09.40322 1.000E-05 09:08:39.790 1.500E-01 0.612 F 0.062 -0.078 +10° 48' 55.50" 1.000E-01 0.612 F 0.158 0.048 20.5 V 0.70 -0.40 o 691 0.15 Yes Yes
2011BX18 O C 2016-02-09.40322 1.000E-05 09:13:19.880 1.500E-01 0.500 F 0.101 -0.163 +12° 04' 54.80" 1.000E-01 0.500 F 0.239 -0.608 19.3 V 0.70 -0.69 o 691 1.26 Yes Yes
2013BE18 O C 2016-02-09.41492 1.000E-05 09:21:43.850 1.500E-01 0.500 F 0.054 -0.185 +12° 58' 44.40" 1.000E-01 0.500 F 0.229 -0.086 20.7 V 0.70 0.07 o 691 0.41 Yes Yes
2011BX18 O C 2016-02-09.42194 1.000E-05 09:13:17.630 1.500E-01 0.500 F 0.101 -0.045 +12° 04' 54.10" 1.000E-01 0.500 F 0.239 -0.013 20.3 V 0.70 0.31 o 691 0.09 Yes Yes
2011DU O C 2016-02-09.42194 1.000E-05 09:08:36.960 1.500E-01 0.612 F 0.062 -0.110 +10° 49' 10.80" 1.000E-01 0.612 F 0.158 0.089 20.8 V 0.70 -0.10 o 691 0.23 Yes Yes
2012XD112 O C H 2016-02-10.11487 1.000E-05 00:45:40.080 1.500E-01 0.500 F -0.212 -0.007 +16° 37' 30.60" 1.000E-01 0.500 F 0.390 0.708 21.0 V 0.70 -0.56 o 691 1.43 Yes Yes
2012XD112 O C H 2016-02-10.11782 1.000E-05 00:45:39.310 1.500E-01 0.500 F -0.212 -0.363 +16° 37' 29.90" 1.000E-01 0.500 F 0.390 -0.489 21.1 V 0.70 -0.46 o 691 1.23 Yes Yes
2012XD112 O C H 2016-02-10.12077 1.000E-05 00:45:38.570 1.500E-01 0.500 F -0.212 -0.300 +16° 37' 31.00" 1.000E-01 0.500 F 0.390 0.116 21.4 V 0.70 -0.16 o 691 0.66 Yes Yes
2016AO164 O C H 2016-02-10.13063 1.000E-05 04:26:17.060 1.500E-01 0.612 F -0.089 -0.511 +05° 20' 06.50" 1.000E-01 0.612 F 0.311 0.657 21.2 V 0.70 -0.08 o 691 1.36 Yes Yes
2016AO164 O C H 2016-02-10.13358 1.000E-05 04:26:17.040 1.500E-01 0.612 F -0.089 -1.515 +05° 20' 16.70" 1.000E-01 0.612 F 0.311 2.345 21.8 V 0.70 0.52 o 691 4.54 No Yes
2016AO164 O C H 2016-02-10.13653 1.000E-05 04:26:17.210 1.500E-01 0.612 F -0.089 0.317 +05° 20' 23.00" 1.000E-01 0.612 F 0.311 0.134 21.6 V 0.70 0.32 o 691 0.56 Yes Yes
2016BD39 O C H 2016-02-10.15007 1.000E-05 04:54:45.040 1.500E-01 0.500 F -0.197 -0.755 -08° 35' 24.50" 1.000E-01 0.500 F 0.168 -0.542 21.8 V 0.70 0.25 o 691 1.88 Yes Yes
2016BD39 O C H 2016-02-10.15469 1.000E-05 04:54:44.470 1.500E-01 0.500 F -0.197 -0.307 -08° 35' 30.90" 1.000E-01 0.500 F 0.168 -0.795 21.8 V 0.70 0.25 o 691 1.73 Yes Yes
2016BD39 O C H 2016-02-10.15931 1.000E-05 04:54:43.900 1.500E-01 0.500 F -0.197 0.137 -08° 35' 37.10" 1.000E-01 0.500 F 0.168 -0.851 21.2 V 0.70 -0.35 o 691 1.75 Yes Yes
2016BP14 O C H 2016-02-10.16334 1.000E-05 05:59:48.000 1.500E-01 0.500 F -0.170 -0.401 +19° 09' 37.50" 1.000E-01 0.500 F 0.334 -0.292 20.8 V 0.70 -0.04 o 691 1.00 Yes Yes
2016BP14 O C H 2016-02-10.16773 1.000E-05 05:59:49.400 1.500E-01 0.500 F -0.170 0.378 +19° 09' 40.00" 1.000E-01 0.500 F 0.334 -0.695 21.4 V 0.70 0.56 o 691 1.59 Yes Yes
2016BP14 O C H 2016-02-10.17211 1.000E-05 05:59:50.480 1.500E-01 0.500 F -0.170 -3.328 +19° 09' 36.20" 1.000E-01 0.500 F 0.334 -7.385 17.6 V 0.70 -3.24 o 691 16.13 No No
2016AO164 O C H 2016-02-10.17615 1.000E-05 04:26:17.850 1.500E-01 0.612 F -0.089 0.038 +05° 22' 17.10" 1.000E-01 0.612 F 0.311 -0.021 21.2 V 0.70 -0.08 o 691 0.07 Yes Yes
2016AO164 O C H 2016-02-10.18031 1.000E-05 04:26:17.910 1.500E-01 0.612 F -0.089 -0.146 +05° 22' 29.40" 1.000E-01 0.612 F 0.311 0.288 21.1 V 0.70 -0.18 o 691 0.53 Yes Yes
2016AO164 O C H 2016-02-10.18447 1.000E-05 04:26:17.930 1.500E-01 0.612 F -0.089 -0.938 +05° 22' 42.70" 1.000E-01 0.612 F 0.311 1.598 20.4 V 0.70 -0.88 o 691 3.04 Yes Yes
2001XT30 O C 2016-02-10.41430 1.000E-05 09:01:25.960 1.500E-01 0.500 F 0.057 -0.326 +15° 47' 54.40" 1.000E-01 0.500 F 0.193 -0.003 20.9 V 0.70 -0.28 o 691 0.65 Yes Yes
2001XT30 O C 2016-02-10.43300 1.000E-05 09:01:24.830 1.500E-01 0.500 F 0.057 -0.300 +15° 48' 01.30" 1.000E-01 0.500 F 0.193 -0.040 21.0 V 0.70 -0.18 o 691 0.61 Yes Yes
2001XT30 O C 2016-02-10.45167 1.000E-05 09:01:23.670 1.500E-01 0.500 F 0.057 -0.773 +15° 48' 08.50" 1.000E-01 0.500 F 0.193 0.245 21.3 V 0.70 0.12 o 691 1.63 Yes Yes
2000WO67 O C 2016-02-11.09940 1.000E-05 04:11:24.520 1.500E-01 0.500 F -0.144 0.081 +18° 08' 19.50" 1.000E-01 0.500 F 0.279 -0.084 20.4 V 0.70 0.03 o 691 0.23 Yes Yes
2016CA136 O C H 2016-02-11.10170 1.000E-05 04:15:10.750 1.500E-01 0.500 F -0.214 -0.071 +18° 26' 12.00" 1.000E-01 0.500 F 0.294 -0.378 20.0 V 0.70 0.00 o 691 0.77 Yes Yes
2000WO67 O C 2016-02-11.10170 1.000E-05 04:11:24.710 1.500E-01 0.500 F -0.144 -0.189 +18° 08' 20.70" 1.000E-01 0.500 F 0.279 -0.289 20.2 V 0.70 -0.17 o 691 0.69 Yes Yes
2016CA136 O C H 2016-02-11.10400 1.000E-05 04:15:11.790 1.500E-01 0.500 F -0.214 0.051 +18° 26' 15.00" 1.000E-01 0.500 F 0.294 -0.353 20.1 V 0.70 0.10 o 691 0.71 Yes Yes
2000WO67 O C 2016-02-11.10400 1.000E-05 04:11:24.920 1.500E-01 0.500 F -0.144 -0.173 +18° 08' 22.30" 1.000E-01 0.500 F 0.279 -0.093 20.2 V 0.70 -0.17 o 691 0.39 Yes Yes
2016BD39 O C H 2016-02-11.12256 1.000E-05 04:52:46.330 1.500E-01 0.500 F -0.184 0.794 -08° 56' 40.50" 1.000E-01 0.500 F 0.207 1.618 21.0 V 0.70 -0.57 o 691 3.56 No Yes
2016BD39 O C H 2016-02-11.12787 1.000E-05 04:52:45.570 1.500E-01 0.500 F -0.184 -0.620 -08° 56' 48.60" 1.000E-01 0.500 F 0.207 0.403 22.0 V 0.70 0.43 o 691 1.49 Yes Yes
2016BD39 O C H 2016-02-11.13318 1.000E-05 04:52:44.900 1.500E-01 0.500 F -0.184 -0.702 -08° 56' 55.80" 1.000E-01 0.500 F 0.207 0.084 21.6 V 0.70 0.03 o 691 1.43 Yes Yes
2016CB138 O C H 2016-02-11.13882 1.000E-05 05:23:45.520 1.500E-01 0.500 F -0.056 3.077 +21° 38' 18.70" 1.000E-01 0.500 F 0.258 -0.985 20.8 V 0.70 0.52 o 691 6.43 No Yes
2016CB138 O C H 2016-02-11.14367 1.000E-05 05:23:46.110 1.500E-01 0.500 F -0.056 0.630 +21° 38' 33.40" 1.000E-01 0.500 F 0.258 0.829 19.9 V 0.70 -0.38 o 691 2.09 Yes Yes
2016CB138 O C H 2016-02-11.14852 1.000E-05 05:23:46.820 1.500E-01 0.500 F -0.056 -0.150 +21° 38' 45.30" 1.000E-01 0.500 F 0.258 -0.129 20.7 V 0.70 0.42 o 691 0.40 Yes Yes
2015UR51 O C H 2016-02-11.19756 1.000E-05 07:40:36.430 1.500E-01 0.500 F 0.120 2.687 -26° 31' 11.10" 1.000E-01 0.500 F 0.113 -0.875 o 691 5.13 No No
2015UR51 O C H 2016-02-11.20333 1.000E-05 07:40:36.210 1.500E-01 0.500 F 0.120 1.805 -26° 31' 00.60" 1.000E-01 0.500 F 0.113 0.903 o 691 3.84 No No
2016CW193 O C H 2016-02-11.20783 1.000E-05 08:24:21.490 1.500E-01 0.500 F -0.036 0.077 -04° 13' 21.80" 1.000E-01 0.500 F 0.017 -0.785 20.5 V 0.70 0.29 o 691 1.59 Yes Yes
2016CW193 O C H 2016-02-11.21244 1.000E-05 08:24:21.910 1.500E-01 0.500 F -0.036 0.246 -04° 13' 06.00" 1.000E-01 0.500 F 0.017 -0.076 20.3 V 0.70 0.09 o 691 0.52 Yes Yes
2016CW193 O C H 2016-02-11.21708 1.000E-05 08:24:22.300 1.500E-01 0.500 F -0.036 -0.062 -04° 12' 47.10" 1.000E-01 0.500 F 0.017 3.637 o 691 7.23 No No
2015YE21 O C H 2016-02-11.25655 1.000E-05 09:07:52.090 1.500E-01 0.612 F 0.140 -0.324 -13° 29' 37.90" 1.000E-01 0.612 F -0.087 -0.409 20.2 V 0.70 -0.06 o 691 0.86 Yes Yes
2015YE21 O C H 2016-02-11.25655 1.000E-05 09:07:52.090 1.500E-01 0.612 F 0.140 -0.324 -13° 29' 37.90" 1.000E-01 0.612 F -0.087 -0.409 20.2 V 0.70 -0.06 o 691 0.86 Yes Yes
2015YE21 O C H 2016-02-11.26163 1.000E-05 09:07:51.470 1.500E-01 0.612 F 0.140 -0.304 -13° 29' 39.30" 1.000E-01 0.612 F -0.087 -0.063 20.2 V 0.70 -0.06 o 691 0.51 Yes Yes
2015YE21 O C H 2016-02-11.26163 1.000E-05 09:07:51.470 1.500E-01 0.612 F 0.140 -0.304 -13° 29' 39.30" 1.000E-01 0.612 F -0.087 -0.063 20.2 V 0.70 -0.06 o 691 0.51 Yes Yes
2015YE21 O C H 2016-02-11.26671 1.000E-05 09:07:50.900 1.500E-01 0.612 F 0.140 0.450 -13° 29' 41.60" 1.000E-01 0.612 F -0.087 -0.623 20.4 V 0.70 0.14 o 691 1.26 Yes Yes
2015YE21 O C H 2016-02-11.26671 1.000E-05 09:07:50.900 1.500E-01 0.612 F 0.140 0.450 -13° 29' 41.60" 1.000E-01 0.612 F -0.087 -0.623 20.4 V 0.70 0.14 o 691 1.26 Yes Yes
2011DU O C H 2016-02-11.30341 1.000E-05 09:04:01.860 1.500E-01 0.500 F 0.023 0.195 +11° 15' 15.30" 1.000E-01 0.500 F 0.202 -0.418 21.1 V 0.70 0.15 o 691 0.93 Yes Yes
2011DU O C H 2016-02-11.30850 1.000E-05 09:04:01.040 1.500E-01 0.500 F 0.023 -0.409 +11° 15' 19.80" 1.000E-01 0.500 F 0.202 -0.168 21.0 V 0.70 0.05 o 691 0.89 Yes Yes
2011DU O C H 2016-02-11.31357 1.000E-05 09:04:00.250 1.500E-01 0.500 F 0.023 -0.619 +11° 15' 24.20" 1.000E-01 0.500 F 0.202 0.002 21.0 V 0.70 0.05 o 691 1.24 Yes Yes
2016BB15 O C 2016-02-11.33596 1.000E-05 09:23:19.970 1.500E-01 0.500 F 0.139 -0.468 +19° 37' 31.90" 1.000E-01 0.500 F 0.269 0.219 21.1 V 0.70 -0.11 o 691 1.11 Yes Yes
2016BB15 O C 2016-02-11.35467 1.000E-05 09:23:21.580 1.500E-01 0.500 F 0.139 -0.382 +19° 37' 04.00" 1.000E-01 0.500 F 0.269 0.168 21.3 V 0.70 0.09 o 691 0.90 Yes Yes
2016BB15 O C 2016-02-11.37338 1.000E-05 09:23:23.240 1.500E-01 0.500 F 0.139 0.267 +19° 36' 35.60" 1.000E-01 0.500 F 0.269 -0.210 20.7 V 0.70 -0.52 o 691 0.73 Yes Yes
2016AG165 O C 2016-02-11.39609 1.000E-05 08:33:02.820 1.500E-01 0.500 F 0.010 -0.207 +12° 41' 59.40" 1.000E-01 0.500 F 0.125 -0.149 20.7 V 0.70 0.13 o 691 0.51 Yes Yes
2016AG165 O C 2016-02-11.41479 1.000E-05 08:33:00.860 1.500E-01 0.500 F 0.010 -0.145 +12° 41' 33.80" 1.000E-01 0.500 F 0.125 0.050 20.5 V 0.70 -0.07 o 691 0.31 Yes Yes
2016AG165 O C 2016-02-11.43345 1.000E-05 08:32:58.900 1.500E-01 0.500 F 0.010 -0.354 +12° 41' 08.10" 1.000E-01 0.500 F 0.125 0.110 20.2 V 0.70 -0.37 o 691 0.74 Yes Yes
2016AA65 O C 2016-02-12.09184 1.000E-05 05:19:05.440 1.500E-01 0.500 F -0.141 0.043 +19° 38' 35.00" 1.000E-01 0.500 F 0.180 -0.187 21.7 V 0.70 -0.43 o 691 0.41 Yes Yes
2016AA65 O C 2016-02-12.09646 1.000E-05 05:19:05.770 1.500E-01 0.500 F -0.141 -0.162 +19° 38' 37.10" 1.000E-01 0.500 F 0.180 0.569 21.7 V 0.70 -0.43 o 691 1.25 Yes Yes
2016AA65 O C 2016-02-12.10107 1.000E-05 05:19:06.120 1.500E-01 0.500 F -0.141 -0.070 +19° 38' 37.70" 1.000E-01 0.500 F 0.180 -0.165 21.8 V 0.70 -0.33 o 691 0.39 Yes Yes
2016CY193 O C H 2016-02-12.22920 1.000E-05 10:05:24.290 1.500E-01 0.500 F 0.094 0.044 -12° 26' 00.30" 1.000E-01 0.500 F 0.134 -0.545 20.7 V 0.70 0.13 o 691 1.11 Yes Yes
2016CY193 O C H 2016-02-12.23174 1.000E-05 10:05:25.610 1.500E-01 0.500 F 0.094 0.758 -12° 26' 00.20" 1.000E-01 0.500 F 0.134 0.114 20.6 V 0.70 0.03 o 691 1.56 Yes Yes
2016CY193 O C H 2016-02-12.23427 1.000E-05 10:05:26.840 1.500E-01 0.500 F 0.094 0.240 -12° 26' 00.90" 1.000E-01 0.500 F 0.134 -0.034 20.5 V 0.70 -0.07 o 691 0.49 Yes Yes
2016CL195 O C H 2016-02-12.23825 1.000E-05 08:09:58.770 1.500E-01 0.500 F 0.037 0.067 +22° 02' 12.40" 1.000E-01 0.500 F 0.264 0.312 20.6 V 0.70 -0.15 o 691 0.64 Yes Yes
2016CL195 O C H 2016-02-12.24195 1.000E-05 08:09:59.740 1.500E-01 0.500 F 0.037 -0.002 +22° 02' 05.40" 1.000E-01 0.500 F 0.264 -0.254 21.0 V 0.70 0.25 o 691 0.51 Yes Yes
2016CL195 O C H 2016-02-12.24565 1.000E-05 08:10:00.700 1.500E-01 0.500 F 0.037 -0.200 +22° 01' 59.10" 1.000E-01 0.500 F 0.264 -0.112 21.0 V 0.70 0.24 o 691 0.46 Yes Yes
2016CU193 O C H 2016-02-12.26762 1.000E-05 09:47:52.670 1.500E-01 0.500 F 0.136 -0.923 +07° 25' 10.10" 1.000E-01 0.500 F 0.209 -1.026 o 691 2.78 Yes No
2016CU193 O C H 2016-02-12.27178 1.000E-05 09:47:51.850 1.500E-01 0.500 F 0.136 0.763 +07° 25' 05.30" 1.000E-01 0.500 F 0.209 -0.551 o 691 1.89 Yes No
2016CU193 O C H 2016-02-12.27593 1.000E-05 09:47:50.930 1.500E-01 0.500 F 0.136 0.931 +07° 24' 59.60" 1.000E-01 0.500 F 0.209 -0.988 o 691 2.73 Yes No
2016CF194 O C 2016-02-12.27989 1.000E-05 09:40:21.150 1.500E-01 0.500 F 0.169 -0.443 +18° 59' 01.20" 1.000E-01 0.500 F 0.419 0.308 21.3 V 0.70 0.11 o 691 1.08 Yes Yes
2016CF194 O C 2016-02-12.28497 1.000E-05 09:40:20.730 1.500E-01 0.500 F 0.169 -0.081 +18° 59' 06.70" 1.000E-01 0.500 F 0.419 0.086 21.0 V 0.70 -0.19 o 691 0.24 Yes Yes
2016CF194 O C 2016-02-12.29005 1.000E-05 09:40:20.260 1.500E-01 0.500 F 0.169 -0.417 +18° 59' 12.50" 1.000E-01 0.500 F 0.419 0.177 20.9 V 0.70 -0.29 o 691 0.91 Yes Yes
2016CQ195 O C H 2016-02-12.29566 1.000E-05 11:18:19.900 1.500E-01 0.500 F 0.208 -0.499 -01° 04' 50.10" 1.000E-01 0.500 F 0.055 0.615 21.7 V 0.70 0.20 o 691 1.59 Yes Yes
2016CQ195 O C H 2016-02-12.30306 1.000E-05 11:18:19.290 1.500E-01 0.500 F 0.208 -0.386 -01° 04' 52.00" 1.000E-01 0.500 F 0.055 0.341 21.3 V 0.70 -0.20 o 691 1.03 Yes Yes
2016CQ195 O C H 2016-02-12.31045 1.000E-05 11:18:18.700 1.500E-01 0.500 F 0.208 0.023 -01° 04' 53.70" 1.000E-01 0.500 F 0.055 0.265 21.2 V 0.70 -0.30 o 691 0.53 Yes Yes
2016AJ193 O C H 2016-02-12.33101 1.000E-05 12:37:27.220 1.500E-01 0.500 F 0.228 0.530 -15° 04' 53.70" 1.000E-01 0.500 F 0.146 0.096 20.4 V 0.70 0.25 o 691 1.08 Yes Yes
2016AJ193 O C H 2016-02-12.33609 1.000E-05 12:37:26.370 1.500E-01 0.500 F 0.228 0.521 -15° 04' 56.20" 1.000E-01 0.500 F 0.146 -0.181 20.7 V 0.70 0.55 o 691 1.10 Yes Yes
2016AJ193 O C H 2016-02-12.34117 1.000E-05 12:37:25.300 1.500E-01 0.500 F 0.228 -2.667 -15° 04' 58.00" 1.000E-01 0.500 F 0.146 0.239 19.6 V 0.70 -0.55 o 691 5.34 No Yes
2016CB194 O C 2016-02-12.37400 1.000E-05 10:20:40.330 1.500E-01 0.612 F 0.154 -0.092 +27° 09' 32.50" 1.000E-01 0.612 F 0.258 -0.209 21.0 V 0.70 -0.27 o 691 0.37 Yes Yes
2016CB194 O C 2016-02-12.37907 1.000E-05 10:20:39.860 1.500E-01 0.612 F 0.154 -0.437 +27° 09' 34.80" 1.000E-01 0.612 F 0.258 0.131 20.8 V 0.70 -0.47 o 691 0.75 Yes Yes
2016CB194 O C 2016-02-12.38416 1.000E-05 10:20:39.420 1.500E-01 0.612 F 0.154 -0.360 +27° 09' 36.70" 1.000E-01 0.612 F 0.258 0.066 20.8 V 0.70 -0.47 o 691 0.60 Yes Yes
2016CB194 O C H 2016-02-12.38761 1.000E-05 10:20:39.100 1.500E-01 0.612 F 0.154 -0.599 +27° 09' 38.00" 1.000E-01 0.612 F 0.258 0.035 21.6 V 0.70 0.33 o 691 0.98 Yes Yes
2016CB194 O C H 2016-02-12.39292 1.000E-05 10:20:38.650 1.500E-01 0.612 F 0.154 -0.401 +27° 09' 40.40" 1.000E-01 0.612 F 0.258 0.389 21.4 V 0.70 0.13 o 691 0.91 Yes Yes
2016CB194 O C H 2016-02-12.39824 1.000E-05 10:20:38.200 1.500E-01 0.612 F 0.154 -0.192 +27° 09' 42.10" 1.000E-01 0.612 F 0.258 0.042 21.4 V 0.70 0.13 o 691 0.32 Yes Yes
2011DU O C H 2016-02-12.43032 1.000E-05 09:01:15.800 1.500E-01 0.500 F 0.009 -0.029 +11° 30' 58.90" 1.000E-01 0.500 F 0.218 0.205 21.2 V 0.70 0.21 o 691 0.42 Yes Yes
2011DU O C H 2016-02-12.43540 1.000E-05 09:01:15.010 1.500E-01 0.500 F 0.009 -0.397 +11° 31' 02.70" 1.000E-01 0.500 F 0.218 -0.185 20.8 V 0.70 -0.19 o 691 0.88 Yes Yes
2011DU O C H 2016-02-12.44049 1.000E-05 09:01:14.260 1.500E-01 0.500 F 0.009 -0.166 +11° 31' 06.70" 1.000E-01 0.500 F 0.218 -0.381 20.9 V 0.70 -0.09 o 691 0.83 Yes Yes
2010MN51 O C 2016-02-12.49501 1.000E-05 16:55:17.590 1.500E-01 0.500 F 0.021 -0.107 +11° 14' 22.20" 1.000E-01 0.500 F 0.213 -0.272 21.0 V 0.70 -0.12 o 691 0.59 Yes Yes
2010MN51 O C 2016-02-12.50670 1.000E-05 16:55:20.270 1.500E-01 0.500 F 0.021 -0.002 +11° 14' 30.20" 1.000E-01 0.500 F 0.213 -0.084 20.6 V 0.70 -0.52 o 691 0.17 Yes Yes
2010MN51 O C 2016-02-12.51838 1.000E-05 16:55:22.920 1.500E-01 0.500 F 0.021 -0.281 +11° 14' 38.20" 1.000E-01 0.500 F 0.213 0.114 21.0 V 0.70 -0.12 o 691 0.64 Yes Yes
2016CT246 O C H 2016-02-13.09763 1.000E-05 07:40:16.210 1.500E-01 0.500 F -0.054 -0.542 +07° 18' 23.70" 1.000E-01 0.500 F 0.113 -1.868 o 691 3.83 No No
2016CT246 O C H 2016-02-13.09948 1.000E-05 07:40:15.250 1.500E-01 0.500 F -0.054 -0.126 +07° 17' 49.90" 1.000E-01 0.500 F 0.113 -1.161 o 691 2.37 Yes No
2016CT246 O C H 2016-02-13.10131 1.000E-05 07:40:14.270 1.500E-01 0.500 F -0.054 -0.163 +07° 17' 14.40" 1.000E-01 0.500 F 0.113 -2.535 o 691 5.01 No No
2016CY135 O C H 2016-02-13.16858 1.000E-05 07:19:26.780 1.500E-01 0.500 F -0.130 -0.704 +17° 02' 41.70" 1.000E-01 0.500 F 0.181 0.610 21.5 V 0.70 -0.14 o 691 1.87 Yes Yes
2016CY135 O C H 2016-02-13.17389 1.000E-05 07:19:25.870 1.500E-01 0.500 F -0.130 0.470 +17° 02' 43.00" 1.000E-01 0.500 F 0.181 -0.270 21.2 V 0.70 -0.44 o 691 1.09 Yes Yes
2016CY135 O C H 2016-02-13.17920 1.000E-05 07:19:24.750 1.500E-01 0.500 F -0.130 -1.347 +17° 02' 45.40" 1.000E-01 0.500 F 0.181 -0.032 21.4 V 0.70 -0.24 o 691 2.70 Yes Yes
2016CN247 O C H 2016-02-13.27368 1.000E-05 09:39:02.710 1.500E-01 0.500 F 0.247 0.255 -22° 58' 04.10" 1.000E-01 0.500 F -0.157 1.351 21.5 V 0.70 0.25 o 691 2.80 Yes Yes
2016CN247 O C H 2016-02-13.27946 1.000E-05 09:39:02.580 1.500E-01 0.500 F 0.247 -0.122 -22° 58' 13.00" 1.000E-01 0.500 F -0.157 0.332 22.1 V 0.70 0.85 o 691 0.72 Yes Yes
2016CN247 O C H 2016-02-13.28524 1.000E-05 09:39:02.470 1.500E-01 0.500 F 0.247 -0.215 -22° 58' 20.60" 1.000E-01 0.500 F -0.157 0.598 21.7 V 0.70 0.45 o 691 1.29 Yes Yes
2016CP247 O C H 2016-02-13.32147 1.000E-05 09:33:36.020 1.500E-01 0.500 F -0.001 -0.070 -08° 14' 45.40" 1.000E-01 0.500 F 0.009 -1.367 o 691 2.76 Yes No
2016CP247 O C H 2016-02-13.32724 1.000E-05 09:33:36.740 1.500E-01 0.500 F -0.001 0.085 -08° 14' 43.00" 1.000E-01 0.500 F 0.009 -0.934 o 691 1.89 Yes No
2016CP247 O C H 2016-02-13.33302 1.000E-05 09:33:37.410 1.500E-01 0.500 F -0.001 -0.526 -08° 14' 40.80" 1.000E-01 0.500 F 0.009 -0.713 o 691 1.79 Yes No
2016CQ195 O C H 2016-02-13.46493 1.000E-05 11:16:42.290 1.500E-01 0.500 F 0.208 -0.508 -01° 09' 02.50" 1.000E-01 0.500 F 0.055 0.465 21.5 V 0.70 0.06 o 691 1.38 Yes Yes
2016CQ195 O C H 2016-02-13.47025 1.000E-05 11:16:41.870 1.500E-01 0.500 F 0.208 0.118 -01° 09' 03.80" 1.000E-01 0.500 F 0.055 0.291 21.0 V 0.70 -0.44 o 691 0.63 Yes Yes
2016CQ195 O C H 2016-02-13.47557 1.000E-05 11:16:41.410 1.500E-01 0.500 F 0.208 0.142 -01° 09' 04.30" 1.000E-01 0.500 F 0.055 0.916 21.1 V 0.70 -0.34 o 691 1.86 Yes Yes
2016CS246 O C H 2016-02-14.11219 1.000E-05 05:28:54.990 1.500E-01 0.500 F -0.031 -0.484 -01° 14' 05.50" 1.000E-01 0.500 F 0.011 -0.557 21.1 V 0.70 0.56 o 691 1.49 Yes Yes
2016CS246 O C H 2016-02-14.11657 1.000E-05 05:28:55.050 1.500E-01 0.500 F -0.031 0.095 -01° 13' 47.50" 1.000E-01 0.500 F 0.011 -0.898 21.0 V 0.70 0.46 o 691 1.82 Yes Yes
2016CY135 O C H 2016-02-14.20423 1.000E-05 07:16:35.230 1.500E-01 0.500 F -0.083 0.978 +17° 09' 20.40" 1.000E-01 0.500 F 0.205 -0.372 o 691 2.10 Yes No
2016CY135 O C H 2016-02-14.21345 1.000E-05 07:16:33.460 1.500E-01 0.500 F -0.083 0.950 +17° 09' 23.20" 1.000E-01 0.500 F 0.205 -1.203 o 691 3.07 Yes No
2016CW193 O C H 2016-02-14.30869 1.000E-05 08:29:09.150 1.500E-01 0.500 F 0.016 -0.970 -01° 38' 31.70" 1.000E-01 0.500 F 0.111 -1.439 21.5 V 0.70 1.04 o 691 3.45 No Yes
2016CW193 O C H 2016-02-14.31377 1.000E-05 08:29:09.600 1.500E-01 0.500 F 0.016 -0.064 -01° 38' 16.00" 1.000E-01 0.500 F 0.111 0.368 21.5 V 0.70 1.04 o 691 0.75 Yes Yes
2016CW193 O C H 2016-02-14.31883 1.000E-05 08:29:09.970 1.500E-01 0.500 F 0.016 -0.342 -01° 38' 03.50" 1.000E-01 0.500 F 0.111 -0.967 21.4 V 0.70 0.94 o 691 2.06 Yes Yes
2016BL1 O C H 2016-02-14.33035 1.000E-05 09:35:00.980 1.500E-01 0.500 F -0.008 0.177 +25° 17' 46.10" 1.000E-01 0.500 F 0.283 -0.048 21.8 V 0.70 1.16 o 691 0.37 Yes Yes
2016BL1 O C H 2016-02-14.33611 1.000E-05 09:35:00.960 1.500E-01 0.500 F -0.008 0.294 +25° 17' 52.60" 1.000E-01 0.500 F 0.283 0.133 21.3 V 0.70 0.66 o 691 0.65 Yes Yes
2016BL1 O C H 2016-02-14.34188 1.000E-05 09:35:00.920 1.500E-01 0.500 F -0.008 0.135 +25° 17' 58.80" 1.000E-01 0.500 F 0.283 0.017 21.5 V 0.70 0.86 o 691 0.27 Yes Yes
2016BC14 O C H 2016-02-14.40399 1.000E-05 15:19:47.350 1.500E-01 0.500 F 0.158 0.120 +13° 53' 46.30" 1.000E-01 0.500 F 0.153 -0.077 20.4 V 0.70 0.91 o 691 0.29 Yes Yes
2016BC14 O C H 2016-02-14.40976 1.000E-05 15:19:47.710 1.500E-01 0.500 F 0.158 -0.022 +13° 53' 41.80" 1.000E-01 0.500 F 0.153 -0.146 19.9 V 0.70 0.41 o 691 0.30 Yes Yes
2016BC14 O C H 2016-02-14.41554 1.000E-05 15:19:48.060 1.500E-01 0.500 F 0.158 -0.270 +13° 53' 37.60" 1.000E-01 0.500 F 0.153 0.104 20.1 V 0.70 0.61 o 691 0.58 Yes Yes
2014FO47 O C H 2016-02-14.45780 1.000E-05 17:15:41.530 1.500E-01 0.500 F 0.096 -0.133 +14° 45' 27.90" 1.000E-01 0.500 F 0.183 0.087 21.2 V 0.70 0.93 o 691 0.34 Yes Yes
2014FO47 O C H 2016-02-14.46334 1.000E-05 17:15:42.100 1.500E-01 0.500 F 0.096 0.171 +14° 45' 16.10" 1.000E-01 0.500 F 0.183 -0.585 20.9 V 0.70 0.63 o 691 1.38 Yes Yes
2014FO47 O C H 2016-02-14.46889 1.000E-05 17:15:42.650 1.500E-01 0.500 F 0.096 0.204 +14° 45' 05.30" 1.000E-01 0.500 F 0.183 -0.229 20.9 V 0.70 0.63 o 691 0.67 Yes Yes
2016CW193 O C H 2016-02-15.14167 1.000E-05 08:30:22.250 1.500E-01 0.500 F 0.016 -0.608 -01° 01' 27.90" 1.000E-01 0.500 F 0.111 -1.869 21.0 V 0.70 0.47 o 691 3.91 No Yes
2016CW193 O C H 2016-02-15.14629 1.000E-05 08:30:22.640 1.500E-01 0.500 F 0.016 -0.067 -01° 01' 14.50" 1.000E-01 0.500 F 0.111 -0.503 20.8 V 0.70 0.27 o 691 1.02 Yes Yes
2016CW193 O C H 2016-02-15.15091 1.000E-05 08:30:22.990 1.500E-01 0.500 F 0.016 -0.111 -01° 01' 01.70" 1.000E-01 0.500 F 0.111 0.266 20.7 V 0.70 0.17 o 691 0.58 Yes Yes
2016CP247 O C H 2016-02-15.25249 1.000E-05 09:38:13.060 1.500E-01 0.500 F 0.027 1.545 -08° 02' 02.50" 1.000E-01 0.500 F -0.052 0.129 22.1 V 0.70 0.86 o 691 3.14 Yes Yes
2016CP247 O C H 2016-02-15.25735 1.000E-05 09:38:13.570 1.500E-01 0.500 F 0.027 -0.273 -08° 02' 00.90" 1.000E-01 0.500 F -0.052 -0.400 21.6 V 0.70 0.36 o 691 0.98 Yes Yes
2016CP247 O C H 2016-02-15.26220 1.000E-05 09:38:14.270 1.500E-01 0.500 F 0.027 0.762 -08° 01' 58.40" 1.000E-01 0.500 F -0.052 -0.030 21.4 V 0.70 0.16 o 691 1.54 Yes Yes
2016CN247 O C H 2016-02-15.28245 1.000E-05 09:38:50.850 1.500E-01 0.500 F 0.219 -0.143 -23° 41' 23.70" 1.000E-01 0.500 F 0.016 0.249 21.3 V 0.70 0.07 o 691 0.58 Yes Yes
2016CN247 O C H 2016-02-15.29168 1.000E-05 09:38:50.720 1.500E-01 0.500 F 0.219 0.291 -23° 41' 35.10" 1.000E-01 0.500 F 0.016 0.376 21.1 V 0.70 -0.13 o 691 0.97 Yes Yes
2016CO247 O C H 2016-02-15.29552 1.000E-05 09:48:32.020 1.500E-01 0.500 F 0.062 0.724 -18° 44' 13.00" 1.000E-01 0.500 F -0.119 -1.291 21.4 V 0.70 -0.02 o 691 2.98 Yes Yes
2016CO247 O C H 2016-02-15.30059 1.000E-05 09:48:31.190 1.500E-01 0.500 F 0.062 1.267 -18° 44' 09.90" 1.000E-01 0.500 F -0.119 -0.117 21.3 V 0.70 -0.12 o 691 2.57 Yes Yes
2016BC14 O C H 2016-02-15.42182 1.000E-05 15:21:05.500 1.500E-01 0.500 F 0.197 0.200 +13° 39' 33.70" 1.000E-01 0.500 F 0.177 -0.178 19.9 V 0.70 0.46 o 691 0.54 Yes Yes
2016BC14 O C H 2016-02-15.42666 1.000E-05 15:21:05.790 1.500E-01 0.500 F 0.197 0.060 +13° 39' 29.90" 1.000E-01 0.500 F 0.177 -0.097 19.7 V 0.70 0.26 o 691 0.23 Yes Yes
2016BC14 O C H 2016-02-15.43150 1.000E-05 15:21:06.110 1.500E-01 0.500 F 0.197 0.389 +13° 39' 25.90" 1.000E-01 0.500 F 0.177 -0.208 19.6 V 0.70 0.16 o 691 0.88 Yes Yes
2016CV193 O C m 2016-02-16.18967 1.000E-05 08:21:48.400 1.500E-01 0.500 F 0.006 -0.204 +26° 57' 50.00" 1.000E-01 0.500 F 0.253 0.735 o 691 1.55 Yes No
2016CV193 O C m 2016-02-16.19517 1.000E-05 08:21:47.710 1.500E-01 0.500 F 0.006 -0.194 +26° 58' 05.50" 1.000E-01 0.500 F 0.253 0.324 o 691 0.77 Yes No
2016CV193 O C m 2016-02-16.20066 1.000E-05 08:21:46.970 1.500E-01 0.500 F 0.006 -0.854 +26° 58' 22.30" 1.000E-01 0.500 F 0.253 1.258 21.2 V 0.70 0.36 o 691 3.09 Yes Yes
2016CJ30 O C H 2016-02-16.20700 1.000E-05 08:12:25.510 1.500E-01 0.612 F 0.036 -0.777 +17° 23' 31.30" 1.000E-01 0.612 F 0.145 -0.992 20.6 V 0.70 0.70 o 691 2.07 Yes Yes
2016CJ30 O C H 2016-02-16.20925 1.000E-05 08:12:26.460 1.500E-01 0.612 F 0.036 -0.030 +17° 23' 30.40" 1.000E-01 0.612 F 0.145 0.867 20.0 V 0.70 0.10 o 691 1.42 Yes Yes
2016CJ30 O C H 2016-02-16.21151 1.000E-05 08:12:27.320 1.500E-01 0.612 F 0.036 -0.626 +17° 23' 26.00" 1.000E-01 0.612 F 0.145 -0.755 20.2 V 0.70 0.30 o 691 1.61 Yes Yes
2016CJ30 O C 2016-02-16.28328 1.000E-05 08:12:55.950 1.500E-01 0.612 F 0.036 -0.786 +17° 21' 55.40" 1.000E-01 0.612 F 0.145 0.099 20.0 V 0.70 0.11 o 691 1.31 Yes Yes
2016CJ30 O C 2016-02-16.28554 1.000E-05 08:12:56.890 1.500E-01 0.612 F 0.036 -0.293 +17° 21' 52.50" 1.000E-01 0.612 F 0.145 0.180 19.7 V 0.70 -0.19 o 691 0.57 Yes Yes
2016CJ30 O C 2016-02-16.28779 1.000E-05 08:12:57.790 1.500E-01 0.612 F 0.036 -0.321 +17° 21' 49.50" 1.000E-01 0.612 F 0.145 0.155 19.8 V 0.70 -0.09 o 691 0.59 Yes Yes
2016CC193 O C 2016-02-16.29049 1.000E-05 08:17:41.290 1.500E-01 0.500 F -0.100 0.173 +14° 19' 16.20" 1.000E-01 0.500 F 0.154 -0.045 20.1 V 0.70 -0.02 o 691 0.36 Yes Yes
2016CC193 O C 2016-02-16.29274 1.000E-05 08:17:41.170 1.500E-01 0.500 F -0.100 -0.286 +14° 19' 29.80" 1.000E-01 0.500 F 0.154 -0.250 20.3 V 0.70 0.18 o 691 0.78 Yes Yes
2016CC193 O C 2016-02-16.29500 1.000E-05 08:17:41.080 1.500E-01 0.500 F -0.100 -0.304 +14° 19' 43.90" 1.000E-01 0.500 F 0.154 -0.015 20.0 V 0.70 -0.12 o 691 0.62 Yes Yes
2016CW193 O C 2016-02-16.33692 1.000E-05 08:31:59.170 1.500E-01 0.500 F 0.059 -0.073 -00° 11' 11.70" 1.000E-01 0.500 F 0.089 0.577 20.6 V 0.70 -0.02 o 691 1.17 Yes Yes
2016CW193 O C 2016-02-16.34033 1.000E-05 08:31:59.380 1.500E-01 0.500 F 0.059 -0.604 -00° 11' 04.00" 1.000E-01 0.500 F 0.089 -0.037 20.4 V 0.70 -0.22 o 691 1.22 Yes Yes
2016CW193 O C 2016-02-16.34374 1.000E-05 08:31:59.660 1.500E-01 0.500 F 0.059 -0.090 -00° 10' 55.10" 1.000E-01 0.500 F 0.089 0.551 20.4 V 0.70 -0.22 o 691 1.12 Yes Yes
2016CZ135 O C H 2016-02-16.36453 1.000E-05 09:41:26.940 1.500E-01 0.500 F 0.200 0.817 +07° 13' 18.40" 1.000E-01 0.500 F 0.212 -0.296 21.2 V 0.70 -0.22 o 691 1.75 Yes Yes
2016CZ135 O C H 2016-02-16.36771 1.000E-05 09:41:26.380 1.500E-01 0.500 F 0.200 -1.337 +07° 13' 22.30" 1.000E-01 0.500 F 0.212 0.273 21.2 V 0.70 -0.22 o 691 2.74 Yes Yes
2016CZ135 O C H 2016-02-16.37089 1.000E-05 09:41:26.010 1.500E-01 0.500 F 0.200 -0.664 +07° 13' 26.00" 1.000E-01 0.500 F 0.212 0.643 21.0 V 0.70 -0.42 o 691 1.86 Yes Yes
2016CK248 O C m 2016-02-16.41862 1.000E-05 09:26:32.740 1.500E-01 0.500 F 0.141 -0.133 +06° 55' 23.40" 1.000E-01 0.500 F 0.229 -0.496 20.6 V 0.70 -0.17 o 691 1.05 Yes Yes
2016CK248 O C m 2016-02-16.42087 1.000E-05 09:26:32.440 1.500E-01 0.500 F 0.141 0.134 +06° 55' 08.90" 1.000E-01 0.500 F 0.229 -0.098 20.5 V 0.70 -0.27 o 691 0.35 Yes Yes
2016CK248 O C m 2016-02-16.42312 1.000E-05 09:26:32.110 1.500E-01 0.500 F 0.141 -0.066 +06° 54' 53.20" 1.000E-01 0.500 F 0.229 -0.890 o 691 1.81 Yes No
2016DF O C 2016-02-16.42756 1.000E-05 10:07:23.920 1.500E-01 0.612 F 0.099 -0.236 +16° 25' 02.00" 1.000E-01 0.612 F 0.274 -0.141 20.2 V 0.70 0.28 o 691 0.46 Yes Yes
2016DF O C H 2016-02-16.42756 1.000E-05 10:07:23.930 1.500E-01 0.612 F 0.099 -0.092 +16° 25' 02.40" 1.000E-01 0.612 F 0.274 0.259 20.4 V 0.70 0.48 o 691 0.46 Yes Yes
2016DF O C H 2016-02-16.42955 1.000E-05 10:07:24.340 1.500E-01 0.612 F 0.099 0.079 +16° 25' 18.40" 1.000E-01 0.612 F 0.274 -0.034 20.3 V 0.70 0.38 o 691 0.14 Yes Yes
2016DF O C 2016-02-16.42955 1.000E-05 10:07:24.330 1.500E-01 0.612 F 0.099 -0.065 +16° 25' 18.90" 1.000E-01 0.612 F 0.274 0.466 20.2 V 0.70 0.28 o 691 0.79 Yes Yes
2016DF O C H 2016-02-16.43151 1.000E-05 10:07:24.740 1.500E-01 0.612 F 0.099 0.171 +16° 25' 34.30" 1.000E-01 0.612 F 0.274 -0.174 20.6 V 0.70 0.68 o 691 0.41 Yes Yes
2016DF O C 2016-02-16.43151 1.000E-05 10:07:24.700 1.500E-01 0.612 F 0.099 -0.404 +16° 25' 34.00" 1.000E-01 0.612 F 0.274 -0.474 20.8 V 0.70 0.88 o 691 1.05 Yes Yes
2016CM195 O C m 2016-02-16.45676 1.000E-05 10:17:47.290 1.500E-01 0.500 F 0.143 2.660 +02° 32' 37.90" 1.000E-01 0.500 F 0.033 2.760 21.3 V 0.70 0.05 o 691 6.97 No Yes
2016CM195 O C m 2016-02-16.45971 1.000E-05 10:17:46.220 1.500E-01 0.500 F 0.143 -0.910 +02° 32' 23.10" 1.000E-01 0.500 F 0.033 -0.054 20.7 V 0.70 -0.55 o 691 2.05 Yes Yes
2016CM195 O C m 2016-02-16.46266 1.000E-05 10:17:45.390 1.500E-01 0.500 F 0.143 -0.890 +02° 32' 10.20" 1.000E-01 0.500 F 0.033 -0.966 20.8 V 0.70 -0.45 o 691 2.96 Yes Yes
2016CQ195 O C H 2016-02-16.49681 1.000E-05 11:12:12.290 1.500E-01 0.500 F 0.124 -0.145 -01° 19' 16.10" 1.000E-01 0.500 F 0.016 0.044 21.1 V 0.70 -0.20 o 691 0.30 Yes Yes

[1-200] [201-400] [401-600] [601-800] [801-1000] [1001-1200] [1201-1400] [1401-1600] [1601-1800] [1801-2000] [2001-2200] [2201-2400] [2401-2600] [2601-2800] [2801-3000] [3001-3200] [3201-3400] [3401-3600] [3601-3800] [3801-4000] [4001-4200] [4201-4400] [4401-4600] [4601-4800] [4801-5000] [5001-5200] [5201-5400] [5401-5600] [5601-5800] [5801-6000] [6001-6200] [6201-6400] [6401-6600] [6601-6800] [6801-7000] [7001-7200] [7201-7400] [7401-7600] [7601-7800] [7801-8000] [8001-8200] [8201-8400] [8401-8600] [8601-8800] [8801-9000] [9001-9200] [9201-9400] [9401-9600] [9601-9800] [9801-10000] [10001-10200] [10201-10400] [10401-10600] [10601-10800] [10801-11000] [11001-11200] [11201-11400] [11401-11600] [11601-11800] [11801-12000] [12001-12200] [12201-12400] [12401-12600] [12601-12800] [12801-13000] [13001-13200] [13201-13400] [13401-13600] [13601-13800] [13801-14000] [14001-14200] [14201-14400] [14401-14600] [14601-14800] [14801-15000] [15001-15200] [15201-15400] [15401-15600] [15601-15800] [15801-16000] [16001-16200] [16201-16400] [16401-16600] [16601-16800] [16801-17000] [17001-17200] [17201-17400] [17401-17600] [17601-17800] [17801-18000] [18001-18200] [18201-18400] [18401-18600] [18601-18800] [18801-19000] [19001-19200] [19201-19400] [19401-19600] [19601-19800] [19801-20000] [20001-20200] [20201-20400] [20401-20600] [20601-20800] [20801-21000] [21001-21200] [21201-21400] [21401-21600] [21601-21800] [21801-22000] [22001-22200] [22201-22400] [22401-22600] [22601-22800] [22801-23000] [23001-23200] [23201-23400] [23401-23600] [23601-23800] [23801-24000] [24001-24200] [24201-24400] [24401-24600] [24601-24800] [24801-25000] [25001-25200] [25201-25400] [25401-25600] [25601-25800] [25801-26000] [26001-26200] [26201-26400] [26401-26600] [26601-26800] [26801-27000] [27001-27200] [27201-27400] [27401-27600] [27601-27800] [27801-28000] [28001-28200] [28201-28400] [28401-28600] [28601-28800] [28801-29000] [29001-29200] [29201-29400] [29401-29600] [29601-29800] [29801-30000] [30001-30200] [30201-30400] [30401-30600] [30601-30800] [30801-31000] [31001-31200] [31201-31400] [31401-31600] [31601-31800] [31801-32000] [32001-32200] [32201-32400] [32401-32600] [32601-32800] [32801-33000] [33001-33200] [33201-33400] [33401-33600] [33601-33800] [33801-34000] [34001-34200] [34201-34400] [34401-34600] [34601-34800] [34801-35000] [35001-35200] [35201-35400] [35401-35600] [35601-35800] [35801-36000] [36001-36200] [36201-36400] [36401-36600] [36601-36800] [36801-37000] [37001-37200] [37201-37400] [37401-37600] [37601-37800] [37801-38000] [38001-38200] [38201-38400] [38401-38600] [38601-38800] [38801-39000] [39001-39200] [39201-39400] [39401-39600] [39601-39800] [39801-40000] [40001-40200] [40201-40400] [40401-40600] [40601-40800] [40801-41000] [41001-41200] [41201-41400] [41401-41600] [41601-41800] [41801-42000] [42001-42200] [42201-42400] [42401-42600] [42601-42800] [42801-43000] [43001-43200] [43201-43400] [43401-43600] [43601-43800] [43801-44000] [44001-44200] [44201-44400] [44401-44600] [44601-44800] [44801-45000] [45001-45200] [45201-45400] [45401-45600] [45601-45800] [45801-46000] [46001-46200] [46201-46400] [46401-46600] [46601-46800] [46801-47000] [47001-47200] [47201-47400] [47401-47600] [47601-47800] [47801-48000] [48001-48200] [48201-48400] [48401-48600] [48601-48800] [48801-49000] [49001-49200] [49201-49400] [49401-49600] [49601-49800] [49801-50000] [50001-50200] [50201-50388]